CYPHCYGL

Guest
Details From CYPH - Inukjuak
To CYGL - LA GRANDE RIVIERE
Flight Number -
Tags generated
Created
Modified
Stats Distance 312 nm / 578 km
Max Altitude 18,000 ft / 5,486 m
Waypoints 5
Social Downloads 0
Likes 0
Share VATSIM

Download

Looking for another format? Having issues loading an existing format? Contact us
Advertisement - Login to hide

Notes

Basic altitude profile: - Ascent Rate: 2500ft/min - Ascent Speed: 250kts - Cruise Altitude: 35000ft - Cruise Speed: 420kts - Descent Rate: 1500ft/min - Descent Speed: 250kts Options: - Use NATs: yes - Use PACOTS: yes - Use low airways: yes - Use high airways: yes

Route

CYPH PH RR13 GW CYGL

ID Type Via Altitude Latitude Longitude Leg Dist Tot Dist Heading (true) Name
O CYPH APT - 0 ft / 0 m 58.47181˚ -78.07722˚ - 0 nm - Inukjuak
PH NDB - 0 ft / 0 m 58.46778˚ -78.07333˚ 0 nm 0 nm 153° / 153° INUKJUAK NDB
YMU NDB RR13 (AWY-LO) 17,000 ft / 5,182 m 56.53694˚ -76.52306˚ 126 nm 126 nm 156° / 157° UMIUJAQ NDB
GW NDB RR13 (AWY-LO) 18,000 ft / 5,486 m 55.28458˚ -77.75142˚ 85 nm 212 nm 209° / 208° JARPIK NDB
O CYGL APT - 0 ft / 0 m 53.62537˚ -77.70412˚ 99 nm 312 nm 179° / 179° LA GRANDE RIVIERE

Altitude Profile

Advertisement - Login to hide

Weather


0- 5 10 15 20 25 30 35+ Temperature / ° C

Clouds and Precipitation
Forecast for 2017-12-13 12:00 UTC. Updated a minute ago

Ground ~20,000 ft ~40,000 ft Winds

CYPH

Details ICAO CYPH (YPH)
Name Inukjuak
Region Canada
Timezone America/Montreal (UTC-5.0)
Stats Elevation 78 ft / 24 m (AMSL)
Location 58.471815° -78.077222°
Runways 1
Magnetic Variation 18.125° W

METAR

CYPH 130700Z AUTO 23012G17KT 9SM -SN FEW031 OVC038 M12/M18 A2988 RMK SLP123

Decode

TAF

TAF CYPH 130538Z 1306/1318 23012KT 6SM -SN OVC030 TEMPO 1306/1318 11/2SM -SHSN PROB30 1306/1318 1SM -SN BKN020 OVC040 RMK FCST BASED ON AUTO OBS. NXT FCST BY 131200Z

Decode

Departure Runways

ID Width Length Bearing (true) Bearing (mag) Surface Threshold Offset Overrun Length
23 131 ft / 40 m 3,915 ft / 1,193 m 46.70° 64.82° Gravel 0 ft / 0 m 0 ft / 0 m
5 131 ft / 40 m 3,915 ft / 1,193 m 226.71° 244.83° Gravel 0 ft / 0 m 0 ft / 0 m

CYGL

Details ICAO CYGL (YGL)
Name LA GRANDE RIVIERE
Region Canada
Timezone America/Montreal (UTC-5.0)
Stats Elevation 639 ft / 195 m (AMSL)
Location 53.625369° -77.704115°
Runways 1
Magnetic Variation 15.325° W

METAR

CYGL 130700Z 02002KT 15SM SKC M27/M30 A2989 RMK SLP149

Decode

TAF

TAF CYGL 130538Z 1306/1406 10005KT P6SM FEW025 PROB30 1306/1314 6SM IC BKN004 FM131400 02008KT P6SM FEW020 FM132100 35012KT P6SM FEW020 BKN100 FM140200 36012KT 5SM -SN BKN020 OVC060 RMK NXT FCST BY 131200Z

Decode

Destination Runways

ID Width Length Bearing (true) Bearing (mag) Surface Threshold Offset Overrun Length
13 150 ft / 46 m 6,469 ft / 1,972 m 113.03° 128.35° Asphalt 0 ft / 0 m 0 ft / 0 m
31 150 ft / 46 m 6,469 ft / 1,972 m 293.05° 308.37° Asphalt 0 ft / 0 m 0 ft / 0 m